KMHL/MHL METAR and TAF weather

Enter ICAO airport designator
Station Type Date Time Source
KMHL METAR 2020/03/31 12:55 UTC NOAA

KMHL 311255Z AUTO 00000KT 10SM CLR 07/02 A3005 RMK AO2 TSNO PWINO


Station Type Date Time Source
KMHL Decoded METAR 2020/03/31 12:55 UTC NOAA

Station name not available
Mar 31, 2020 - 08:55 AM EDT / 2020.03.31 1255 UTC
Wind: Calm:0
Visibility: 10 mile(s):0
Sky conditions: clear
Temperature: 44 F (7 C)
Dew Point: 35 F (2 C)
Relative Humidity: 70%
Pressure (altimeter): 30.05 in. Hg (1017 hPa)
ob: KMHL 311255Z AUTO 00000KT 10SM CLR 07/02 A3005 RMK AO2 TSNO PWINO
cycle: 13

Station Type Date Time Source
KMHL TAF UTC NOAA

Error!

Example: see airport list